ADDS METAR Data INFO
IDs: Format: Raw Decoded Include TAF

Data at: 2243 UTC 22 Aug 2017

KODO 222231Z AUTO 25006KT 10SM FEW049 SCT075 28/18 A3007 RMK AO2 LTG DSNT W RAE08 TSE17 P0000 T02780178 $
KODO 222223Z AUTO 25010KT 10SM VCTS SCT046 SCT075 BKN095 27/18 A3008 RMK AO2 LTG DSNT W RAE08 TSE17 P0000 T02720178 $
KODO 222153Z AUTO 26010KT 5SM TSRA FEW075 SCT095 BKN110 29/18 A3008 RMK AO2 LTG DSNT SW-N RAB40 TSB04 SLP138 P0002 T02890183 $
KODO 222110Z AUTO 15010G17KT 10SM TS CLR 34/16 A3008 RMK AO2 LTG DSNT W-N TSB04 T03390156
KODO 222053Z AUTO 11012G16KT 10SM VCTS CLR 35/15 A3009 RMK AO2 LTG DSNT N AND NW SLP134 T03500150 58022
KODO 221953Z AUTO VRB06G14KT 10SM CLR 34/16 A3011 RMK AO2 LTG DSNT N AND NW SLP143 T03440156
KODO 221853Z AUTO 00000KT 10SM CLR 33/17 A3014 RMK AO2 SLP154 T03330167
KODO 221753Z AUTO VRB04KT 10SM CLR 32/17 A3016 RMK AO2 SLP158 T03220172 10322 20222 50002
KODO 221653Z AUTO 23003KT 10SM CLR 30/17 A3016 RMK AO2 SLP162 T03000172
KODO 221553Z AUTO 20008KT 10SM CLR 28/18 A3015 RMK AO2 SLP159 T02780178
KODO 221453Z AUTO 20009KT 10SM CLR 27/18 A3015 RMK AO2 SLP159 T02670178 53007
KODO 221353Z AUTO 20007KT 10SM CLR 25/18 A3014 RMK AO2 SLP156 T02500178
KODO 221253Z AUTO 17005KT 10SM CLR 23/17 A3013 RMK AO2 SLP155 T02280172
KODO 221153Z AUTO 17004KT 10SM CLR 23/17 A3013 RMK AO2 SLP153 T02280167 10267 20228 53000
KODO 221053Z AUTO 18007KT 10SM CLR 24/17 A3012 RMK AO2 SLP147 T02390167
KODO 220953Z AUTO 17008KT 10SM CLR 24/16 A3012 RMK AO2 SLP149 T02390161
KODO 220853Z AUTO 16007KT 10SM CLR 24/16 A3013 RMK AO2 SLP151 T02390156 58003
KODO 220753Z AUTO 16008KT 10SM CLR 25/16 A3013 RMK AO2 SLP150 T02500156
KODO 220653Z AUTO 18007KT 10SM CLR 26/15 A3014 RMK AO2 SLP154 T02560150
KODO 220553Z AUTO 18008KT 10SM CLR 27/15 A3014 RMK AO2 SLP153 T02670150 10317 20261 403330217 50009
KODO 220453Z AUTO 17007KT 10SM CLR 27/16 A3014 RMK AO2 SLP154 T02720156
KODO 220353Z AUTO 16008KT 10SM CLR 28/16 A3012 RMK AO2 SLP149 T02830161
KODO 220253Z AUTO 16010KT 10SM CLR 29/16 A3011 RMK AO2 SLP144 T02890156 53009
KODO 220153Z AUTO 16008KT 10SM CLR 30/16 A3009 RMK AO2 SLP140 T03000156
KODO 220053Z AUTO 16012KT 10SM SCT075 31/16 A3008 RMK AO2 SLP137 T03110156
KODO 212353Z AUTO 17009G20KT 10SM FEW070 32/16 A3008 RMK AO2 SLP134 60000 T03170156 10333 20289 56013
KODO 212253Z AUTO 21010KT 10SM FEW065 SCT100 32/15 A3008 RMK AO2 PK WND 20037/2217 SLP135 T03220150
KODO 212153Z AUTO 21012G15KT 10SM FEW060 SCT110 32/16 A3010 RMK AO2 SLP139 T03220156
KODO 212053Z AUTO 21010KT 10SM SCT049 BKN060 BKN075 31/18 A3012 RMK AO2 RAB35E46 SLP148 P0000 60000 T03110178 58009
KODO 211953Z AUTO 17011G18KT 10SM FEW050 SCT110 32/18 A3013 RMK AO2 SLP152 T03170178
KODO 211853Z AUTO 20012G20KT 10SM CLR 31/18 A3014 RMK AO2 SLP155 T03060183
KODO 211753Z AUTO 20011KT 10SM CLR 29/18 A3015 RMK AO2 SLP159 T02940178 10294 20217 58001
KODO 211653Z AUTO 18011KT 10SM FEW100 29/18 A3015 RMK AO2 SLP162 T02890183
KODO 211553Z AUTO 19010KT 10SM CLR 28/19 A3015 RMK AO2 SLP163 T02780189
KODO 211453Z AUTO 17011KT 10SM CLR 26/19 A3015 RMK AO2 SLP162 T02610189 53012
KODO 211353Z AUTO 15004KT 10SM CLR 25/19 A3013 RMK AO2 SLP158 T02500189
KODO 211253Z AUTO 01003KT 10SM CLR 22/19 A3012 RMK AO2 SLP155 T02220194 $
KODO 211153Z AUTO 26003KT 10SM CLR 22/19 A3011 RMK AO2 SLP149 T02220194 10256 20222 51002 $
KODO 211053Z AUTO 26004KT 10SM CLR 23/20 A3011 RMK AO2 WSHFT 0957 SLP149 T02280200 $